sensor_id;sensor_type;location;lat;lon;timestamp;P1;durP1;ratioP1;P2;durP2;ratioP2
66946;SDS011;53853;51.982;5.928;2023-08-31T00:01:32;4.68;;;2.00;;
66946;SDS011;53853;51.982;5.928;2023-08-31T00:04:03;4.00;;;2.70;;
66946;SDS011;53853;51.982;5.928;2023-08-31T00:06:36;5.10;;;2.75;;
66946;SDS011;53853;51.982;5.928;2023-08-31T00:09:06;2.13;;;1.48;;
66946;SDS011;53853;51.982;5.928;2023-08-31T00:11:39;2.95;;;1.80;;
66946;SDS011;53853;51.982;5.928;2023-08-31T00:14:09;3.78;;;2.20;;
66946;SDS011;53853;51.982;5.928;2023-08-31T00:16:39;2.78;;;2.17;;
66946;SDS011;53853;51.982;5.928;2023-08-31T00:19:11;3.15;;;2.10;;
66946;SDS011;53853;51.982;5.928;2023-08-31T00:21:42;4.75;;;2.65;;
66946;SDS011;53853;51.982;5.928;2023-08-31T00:24:12;4.18;;;2.30;;
66946;SDS011;53853;51.982;5.928;2023-08-31T00:26:45;3.92;;;1.80;;
66946;SDS011;53853;51.982;5.928;2023-08-31T00:29:17;4.30;;;1.83;;
66946;SDS011;53853;51.982;5.928;2023-08-31T00:31:46;3.55;;;2.28;;
66946;SDS011;53853;51.982;5.928;2023-08-31T00:34:17;2.20;;;1.38;;
66946;SDS011;53853;51.982;5.928;2023-08-31T00:36:47;3.20;;;1.60;;
66946;SDS011;53853;51.982;5.928;2023-08-31T00:39:17;3.78;;;2.00;;
66946;SDS011;53853;51.982;5.928;2023-08-31T00:41:50;4.97;;;2.67;;
66946;SDS011;53853;51.982;5.928;2023-08-31T00:44:22;3.72;;;2.08;;
66946;SDS011;53853;51.982;5.928;2023-08-31T00:46:52;6.47;;;2.80;;
66946;SDS011;53853;51.982;5.928;2023-08-31T00:49:23;4.18;;;2.92;;
66946;SDS011;53853;51.982;5.928;2023-08-31T00:51:53;3.08;;;2.30;;
66946;SDS011;53853;51.982;5.928;2023-08-31T00:54:24;6.32;;;3.10;;
66946;SDS011;53853;51.982;5.928;2023-08-31T00:56:58;3.83;;;2.28;;
66946;SDS011;53853;51.982;5.928;2023-08-31T01:02:01;5.47;;;3.65;;
66946;SDS011;53853;51.982;5.928;2023-08-31T01:04:38;7.00;;;3.65;;
66946;SDS011;53853;51.982;5.928;2023-08-31T01:07:20;4.60;;;3.90;;
66946;SDS011;53853;51.982;5.928;2023-08-31T01:10:02;6.35;;;3.63;;
66946;SDS011;53853;51.982;5.928;2023-08-31T01:12:40;8.10;;;5.47;;
66946;SDS011;53853;51.982;5.928;2023-08-31T01:15:15;6.65;;;4.38;;
66946;SDS011;53853;51.982;5.928;2023-08-31T01:17:47;7.60;;;4.88;;
66946;SDS011;53853;51.982;5.928;2023-08-31T01:20:21;5.63;;;4.17;;
66946;SDS011;53853;51.982;5.928;2023-08-31T01:23:01;5.90;;;4.40;;
66946;SDS011;53853;51.982;5.928;2023-08-31T01:25:38;6.50;;;3.95;;
66946;SDS011;53853;51.982;5.928;2023-08-31T01:28:09;6.60;;;5.38;;
66946;SDS011;53853;51.982;5.928;2023-08-31T01:30:40;9.55;;;7.15;;
66946;SDS011;53853;51.982;5.928;2023-08-31T01:33:11;7.40;;;6.30;;
66946;SDS011;53853;51.982;5.928;2023-08-31T01:35:43;8.73;;;7.07;;
66946;SDS011;53853;51.982;5.928;2023-08-31T01:38:18;10.70;;;8.75;;
66946;SDS011;53853;51.982;5.928;2023-08-31T01:40:57;9.05;;;7.93;;
66946;SDS011;53853;51.982;5.928;2023-08-31T01:43:32;7.05;;;5.85;;
66946;SDS011;53853;51.982;5.928;2023-08-31T01:46:03;7.65;;;5.22;;
66946;SDS011;53853;51.982;5.928;2023-08-31T01:48:37;10.80;;;8.73;;
66946;SDS011;53853;51.982;5.928;2023-08-31T01:51:09;9.43;;;8.43;;
66946;SDS011;53853;51.982;5.928;2023-08-31T01:53:39;7.72;;;6.50;;
66946;SDS011;53853;51.982;5.928;2023-08-31T01:56:13;5.63;;;4.72;;
66946;SDS011;53853;51.982;5.928;2023-08-31T01:58:42;11.63;;;7.35;;
66946;SDS011;53853;51.982;5.928;2023-08-31T02:01:12;10.18;;;8.60;;
66946;SDS011;53853;51.982;5.928;2023-08-31T02:03:44;12.55;;;7.90;;
66946;SDS011;53853;51.982;5.928;2023-08-31T02:06:14;10.38;;;8.40;;
66946;SDS011;53853;51.982;5.928;2023-08-31T02:08:44;11.07;;;9.18;;
66946;SDS011;53853;51.982;5.928;2023-08-31T02:11:19;7.55;;;6.63;;
66946;SDS011;53853;51.982;5.928;2023-08-31T02:13:50;7.68;;;6.53;;
66946;SDS011;53853;51.982;5.928;2023-08-31T02:16:20;13.45;;;9.10;;
66946;SDS011;53853;51.982;5.928;2023-08-31T02:18:50;7.47;;;6.45;;
66946;SDS011;53853;51.982;5.928;2023-08-31T02:21:20;6.80;;;5.95;;
66946;SDS011;53853;51.982;5.928;2023-08-31T02:23:52;7.00;;;4.90;;
66946;SDS011;53853;51.982;5.928;2023-08-31T02:26:25;7.70;;;6.30;;
66946;SDS011;53853;51.982;5.928;2023-08-31T02:28:55;8.15;;;7.05;;
66946;SDS011;53853;51.982;5.928;2023-08-31T02:31:25;5.53;;;4.65;;
66946;SDS011;53853;51.982;5.928;2023-08-31T02:33:55;8.35;;;6.72;;
66946;SDS011;53853;51.982;5.928;2023-08-31T02:36:25;8.00;;;5.35;;
66946;SDS011;53853;51.982;5.928;2023-08-31T02:38:55;7.05;;;6.35;;
66946;SDS011;53853;51.982;5.928;2023-08-31T02:41:28;7.90;;;5.85;;
66946;SDS011;53853;51.982;5.928;2023-08-31T02:43:58;6.95;;;5.05;;
66946;SDS011;53853;51.982;5.928;2023-08-31T02:46:28;6.45;;;5.72;;
66946;SDS011;53853;51.982;5.928;2023-08-31T02:48:58;7.15;;;5.25;;
66946;SDS011;53853;51.982;5.928;2023-08-31T02:51:28;6.05;;;5.45;;
66946;SDS011;53853;51.982;5.928;2023-08-31T02:53:58;9.48;;;8.45;;
66946;SDS011;53853;51.982;5.928;2023-08-31T02:56:31;8.68;;;7.78;;
66946;SDS011;53853;51.982;5.928;2023-08-31T02:59:01;7.18;;;5.72;;
66946;SDS011;53853;51.982;5.928;2023-08-31T03:01:31;10.90;;;8.30;;
66946;SDS011;53853;51.982;5.928;2023-08-31T03:04:01;8.38;;;6.85;;
66946;SDS011;53853;51.982;5.928;2023-08-31T03:06:31;6.80;;;5.78;;
66946;SDS011;53853;51.982;5.928;2023-08-31T03:09:01;6.70;;;5.40;;
66946;SDS011;53853;51.982;5.928;2023-08-31T03:11:34;8.20;;;7.35;;
66946;SDS011;53853;51.982;5.928;2023-08-31T03:14:04;7.20;;;6.45;;
66946;SDS011;53853;51.982;5.928;2023-08-31T03:16:35;10.50;;;9.40;;
66946;SDS011;53853;51.982;5.928;2023-08-31T03:19:05;7.90;;;6.47;;
66946;SDS011;53853;51.982;5.928;2023-08-31T03:21:35;6.95;;;6.22;;
66946;SDS011;53853;51.982;5.928;2023-08-31T03:24:06;8.13;;;5.53;;
66946;SDS011;53853;51.982;5.928;2023-08-31T03:26:38;6.90;;;5.43;;
66946;SDS011;53853;51.982;5.928;2023-08-31T03:29:08;7.40;;;6.03;;
66946;SDS011;53853;51.982;5.928;2023-08-31T03:31:38;6.32;;;5.15;;
66946;SDS011;53853;51.982;5.928;2023-08-31T03:34:08;7.57;;;6.72;;
66946;SDS011;53853;51.982;5.928;2023-08-31T03:36:40;6.82;;;5.55;;
66946;SDS011;53853;51.982;5.928;2023-08-31T03:39:10;6.68;;;6.07;;
66946;SDS011;53853;51.982;5.928;2023-08-31T03:41:42;7.70;;;5.80;;
66946;SDS011;53853;51.982;5.928;2023-08-31T03:44:12;6.45;;;5.82;;
66946;SDS011;53853;51.982;5.928;2023-08-31T03:46:42;7.53;;;5.97;;
66946;SDS011;53853;51.982;5.928;2023-08-31T03:49:12;8.80;;;6.20;;
66946;SDS011;53853;51.982;5.928;2023-08-31T03:51:42;7.75;;;6.82;;
66946;SDS011;53853;51.982;5.928;2023-08-31T03:54:12;8.50;;;5.78;;
66946;SDS011;53853;51.982;5.928;2023-08-31T03:56:45;8.00;;;6.68;;
66946;SDS011;53853;51.982;5.928;2023-08-31T03:59:15;6.78;;;5.85;;
66946;SDS011;53853;51.982;5.928;2023-08-31T04:01:46;5.82;;;5.18;;
66946;SDS011;53853;51.982;5.928;2023-08-31T04:04:16;6.13;;;5.30;;
66946;SDS011;53853;51.982;5.928;2023-08-31T04:06:46;7.15;;;6.18;;
66946;SDS011;53853;51.982;5.928;2023-08-31T04:09:16;7.40;;;6.45;;
66946;SDS011;53853;51.982;5.928;2023-08-31T04:11:49;7.60;;;5.40;;
66946;SDS011;53853;51.982;5.928;2023-08-31T04:14:18;6.78;;;4.88;;
66946;SDS011;53853;51.982;5.928;2023-08-31T04:16:48;8.25;;;6.68;;
66946;SDS011;53853;51.982;5.928;2023-08-31T04:19:18;8.32;;;6.53;;
66946;SDS011;53853;51.982;5.928;2023-08-31T04:21:48;7.15;;;5.88;;
66946;SDS011;53853;51.982;5.928;2023-08-31T04:24:18;6.25;;;5.15;;
66946;SDS011;53853;51.982;5.928;2023-08-31T04:26:51;6.10;;;5.10;;
66946;SDS011;53853;51.982;5.928;2023-08-31T04:29:21;9.75;;;5.43;;
66946;SDS011;53853;51.982;5.928;2023-08-31T04:31:51;6.00;;;5.25;;
66946;SDS011;53853;51.982;5.928;2023-08-31T04:34:21;6.57;;;5.00;;
66946;SDS011;53853;51.982;5.928;2023-08-31T04:36:52;7.85;;;5.38;;
66946;SDS011;53853;51.982;5.928;2023-08-31T04:39:22;7.47;;;4.95;;
66946;SDS011;53853;51.982;5.928;2023-08-31T04:41:55;6.97;;;5.53;;
66946;SDS011;53853;51.982;5.928;2023-08-31T04:44:25;9.57;;;8.25;;
66946;SDS011;53853;51.982;5.928;2023-08-31T04:46:55;10.00;;;6.32;;
66946;SDS011;53853;51.982;5.928;2023-08-31T04:49:25;8.70;;;7.30;;
66946;SDS011;53853;51.982;5.928;2023-08-31T04:51:55;8.10;;;6.40;;
66946;SDS011;53853;51.982;5.928;2023-08-31T04:54:25;12.98;;;8.15;;
66946;SDS011;53853;51.982;5.928;2023-08-31T04:56:58;9.73;;;6.68;;
66946;SDS011;53853;51.982;5.928;2023-08-31T04:59:29;11.23;;;9.00;;
66946;SDS011;53853;51.982;5.928;2023-08-31T05:01:59;9.98;;;7.18;;
66946;SDS011;53853;51.982;5.928;2023-08-31T05:04:29;10.32;;;8.93;;
66946;SDS011;53853;51.982;5.928;2023-08-31T05:06:59;7.68;;;5.35;;
66946;SDS011;53853;51.982;5.928;2023-08-31T05:09:29;9.80;;;7.15;;
66946;SDS011;53853;51.982;5.928;2023-08-31T05:12:03;9.73;;;7.65;;
66946;SDS011;53853;51.982;5.928;2023-08-31T05:14:34;9.35;;;7.93;;
66946;SDS011;53853;51.982;5.928;2023-08-31T05:17:05;8.57;;;7.00;;
66946;SDS011;53853;51.982;5.928;2023-08-31T05:19:35;10.90;;;9.00;;
66946;SDS011;53853;51.982;5.928;2023-08-31T05:22:05;11.20;;;8.93;;
66946;SDS011;53853;51.982;5.928;2023-08-31T05:24:35;10.75;;;8.75;;
66946;SDS011;53853;51.982;5.928;2023-08-31T05:27:08;9.52;;;7.63;;
66946;SDS011;53853;51.982;5.928;2023-08-31T05:29:38;10.50;;;8.60;;
66946;SDS011;53853;51.982;5.928;2023-08-31T05:32:08;9.88;;;7.10;;
66946;SDS011;53853;51.982;5.928;2023-08-31T05:34:38;17.23;;;12.18;;
66946;SDS011;53853;51.982;5.928;2023-08-31T05:37:08;13.63;;;11.25;;
66946;SDS011;53853;51.982;5.928;2023-08-31T05:39:38;8.85;;;7.03;;
66946;SDS011;53853;51.982;5.928;2023-08-31T05:42:10;9.75;;;8.50;;
66946;SDS011;53853;51.982;5.928;2023-08-31T05:44:40;14.98;;;12.73;;
66946;SDS011;53853;51.982;5.928;2023-08-31T05:47:10;15.38;;;13.68;;
66946;SDS011;53853;51.982;5.928;2023-08-31T05:49:40;13.98;;;11.25;;
66946;SDS011;53853;51.982;5.928;2023-08-31T05:52:10;15.95;;;13.48;;
66946;SDS011;53853;51.982;5.928;2023-08-31T05:54:40;16.85;;;13.13;;
66946;SDS011;53853;51.982;5.928;2023-08-31T05:57:12;16.05;;;12.82;;
66946;SDS011;53853;51.982;5.928;2023-08-31T05:59:42;11.90;;;10.65;;
66946;SDS011;53853;51.982;5.928;2023-08-31T06:02:12;13.30;;;11.95;;
66946;SDS011;53853;51.982;5.928;2023-08-31T06:04:43;13.40;;;12.00;;
66946;SDS011;53853;51.982;5.928;2023-08-31T06:07:13;13.57;;;11.90;;
66946;SDS011;53853;51.982;5.928;2023-08-31T06:09:43;9.15;;;7.88;;
66946;SDS011;53853;51.982;5.928;2023-08-31T06:12:16;14.55;;;13.05;;
66946;SDS011;53853;51.982;5.928;2023-08-31T06:14:46;17.05;;;11.82;;
66946;SDS011;53853;51.982;5.928;2023-08-31T06:17:17;11.18;;;9.60;;
66946;SDS011;53853;51.982;5.928;2023-08-31T06:19:46;7.95;;;6.95;;
66946;SDS011;53853;51.982;5.928;2023-08-31T06:22:16;11.95;;;10.35;;
66946;SDS011;53853;51.982;5.928;2023-08-31T06:24:48;13.63;;;12.30;;
66946;SDS011;53853;51.982;5.928;2023-08-31T06:27:21;12.52;;;10.90;;
66946;SDS011;53853;51.982;5.928;2023-08-31T06:29:51;9.75;;;8.13;;
66946;SDS011;53853;51.982;5.928;2023-08-31T06:32:22;6.85;;;6.15;;
66946;SDS011;53853;51.982;5.928;2023-08-31T06:34:53;8.35;;;7.10;;
66946;SDS011;53853;51.982;5.928;2023-08-31T06:37:23;12.85;;;10.63;;
66946;SDS011;53853;51.982;5.928;2023-08-31T06:39:53;10.98;;;8.63;;
66946;SDS011;53853;51.982;5.928;2023-08-31T06:42:25;12.25;;;10.98;;
66946;SDS011;53853;51.982;5.928;2023-08-31T06:44:55;11.90;;;10.30;;
66946;SDS011;53853;51.982;5.928;2023-08-31T06:47:25;11.00;;;9.77;;
66946;SDS011;53853;51.982;5.928;2023-08-31T06:49:55;10.98;;;9.88;;
66946;SDS011;53853;51.982;5.928;2023-08-31T06:52:26;11.88;;;8.43;;
66946;SDS011;53853;51.982;5.928;2023-08-31T06:54:56;11.48;;;9.40;;
66946;SDS011;53853;51.982;5.928;2023-08-31T06:57:29;7.05;;;5.88;;
66946;SDS011;53853;51.982;5.928;2023-08-31T06:59:59;8.98;;;6.85;;
66946;SDS011;53853;51.982;5.928;2023-08-31T07:02:29;9.07;;;8.15;;
66946;SDS011;53853;51.982;5.928;2023-08-31T07:05:00;11.90;;;9.90;;
66946;SDS011;53853;51.982;5.928;2023-08-31T07:07:30;9.50;;;8.57;;
66946;SDS011;53853;51.982;5.928;2023-08-31T07:10:00;11.60;;;10.20;;
66946;SDS011;53853;51.982;5.928;2023-08-31T07:12:34;10.82;;;9.02;;
66946;SDS011;53853;51.982;5.928;2023-08-31T07:15:04;13.60;;;11.55;;
66946;SDS011;53853;51.982;5.928;2023-08-31T07:17:35;8.75;;;6.82;;
66946;SDS011;53853;51.982;5.928;2023-08-31T07:20:05;7.85;;;6.30;;
66946;SDS011;53853;51.982;5.928;2023-08-31T07:22:36;14.02;;;10.50;;
66946;SDS011;53853;51.982;5.928;2023-08-31T07:25:07;7.53;;;6.70;;
66946;SDS011;53853;51.982;5.928;2023-08-31T07:27:40;13.13;;;7.47;;
66946;SDS011;53853;51.982;5.928;2023-08-31T07:30:10;10.98;;;8.52;;
66946;SDS011;53853;51.982;5.928;2023-08-31T07:32:40;9.75;;;7.80;;
66946;SDS011;53853;51.982;5.928;2023-08-31T07:35:10;16.42;;;11.15;;
66946;SDS011;53853;51.982;5.928;2023-08-31T07:37:40;13.32;;;10.23;;
66946;SDS011;53853;51.982;5.928;2023-08-31T07:40:11;11.60;;;9.30;;
66946;SDS011;53853;51.982;5.928;2023-08-31T07:42:43;12.57;;;10.20;;
66946;SDS011;53853;51.982;5.928;2023-08-31T07:45:13;13.13;;;8.88;;
66946;SDS011;53853;51.982;5.928;2023-08-31T07:47:43;7.78;;;5.18;;
66946;SDS011;53853;51.982;5.928;2023-08-31T07:50:14;12.38;;;10.23;;
66946;SDS011;53853;51.982;5.928;2023-08-31T07:52:44;11.35;;;6.53;;
66946;SDS011;53853;51.982;5.928;2023-08-31T07:55:13;8.15;;;7.20;;
66946;SDS011;53853;51.982;5.928;2023-08-31T07:57:47;10.52;;;7.70;;
66946;SDS011;53853;51.982;5.928;2023-08-31T08:00:17;9.10;;;5.47;;
66946;SDS011;53853;51.982;5.928;2023-08-31T08:02:48;11.43;;;8.15;;
66946;SDS011;53853;51.982;5.928;2023-08-31T08:05:18;10.20;;;6.95;;
66946;SDS011;53853;51.982;5.928;2023-08-31T08:07:48;6.18;;;4.97;;
66946;SDS011;53853;51.982;5.928;2023-08-31T08:10:18;10.65;;;8.38;;
66946;SDS011;53853;51.982;5.928;2023-08-31T08:12:50;10.50;;;8.38;;
66946;SDS011;53853;51.982;5.928;2023-08-31T08:17:51;8.68;;;6.93;;
66946;SDS011;53853;51.982;5.928;2023-08-31T08:20:22;11.10;;;6.75;;
66946;SDS011;53853;51.982;5.928;2023-08-31T08:22:52;11.70;;;8.90;;
66946;SDS011;53853;51.982;5.928;2023-08-31T08:25:24;7.40;;;6.35;;
66946;SDS011;53853;51.982;5.928;2023-08-31T08:27:56;5.93;;;5.15;;
66946;SDS011;53853;51.982;5.928;2023-08-31T08:30:26;11.70;;;9.02;;
66946;SDS011;53853;51.982;5.928;2023-08-31T08:32:56;9.93;;;6.43;;
66946;SDS011;53853;51.982;5.928;2023-08-31T08:35:26;9.23;;;6.82;;
66946;SDS011;53853;51.982;5.928;2023-08-31T08:37:56;5.95;;;5.28;;
66946;SDS011;53853;51.982;5.928;2023-08-31T08:40:26;7.13;;;5.78;;
66946;SDS011;53853;51.982;5.928;2023-08-31T08:43:02;5.82;;;5.03;;
66946;SDS011;53853;51.982;5.928;2023-08-31T08:45:36;9.98;;;7.85;;
66946;SDS011;53853;51.982;5.928;2023-08-31T08:48:08;9.30;;;8.25;;
66946;SDS011;53853;51.982;5.928;2023-08-31T08:50:38;9.13;;;8.20;;
66946;SDS011;53853;51.982;5.928;2023-08-31T08:53:08;9.85;;;7.72;;
66946;SDS011;53853;51.982;5.928;2023-08-31T08:55:40;9.85;;;6.75;;
66946;SDS011;53853;51.982;5.928;2023-08-31T08:58:13;8.75;;;5.30;;
66946;SDS011;53853;51.982;5.928;2023-08-31T09:00:43;7.35;;;5.53;;
66946;SDS011;53853;51.982;5.928;2023-08-31T09:03:15;10.15;;;6.85;;
66946;SDS011;53853;51.982;5.928;2023-08-31T09:05:45;7.85;;;6.40;;
66946;SDS011;53853;51.982;5.928;2023-08-31T09:08:15;5.30;;;4.30;;
66946;SDS011;53853;51.982;5.928;2023-08-31T09:10:45;4.53;;;3.47;;
66946;SDS011;53853;51.982;5.928;2023-08-31T09:13:17;5.15;;;3.42;;
66946;SDS011;53853;51.982;5.928;2023-08-31T09:15:48;5.40;;;3.95;;
66946;SDS011;53853;51.982;5.928;2023-08-31T09:18:22;7.63;;;4.82;;
66946;SDS011;53853;51.982;5.928;2023-08-31T09:20:53;7.80;;;5.20;;
66946;SDS011;53853;51.982;5.928;2023-08-31T09:23:24;5.53;;;3.95;;
66946;SDS011;53853;51.982;5.928;2023-08-31T09:25:55;6.05;;;4.97;;
66946;SDS011;53853;51.982;5.928;2023-08-31T09:28:28;7.53;;;5.80;;
66946;SDS011;53853;51.982;5.928;2023-08-31T09:31:04;7.70;;;5.75;;
66946;SDS011;53853;51.982;5.928;2023-08-31T09:33:35;7.10;;;5.03;;
66946;SDS011;53853;51.982;5.928;2023-08-31T09:36:06;9.13;;;5.88;;
66946;SDS011;53853;51.982;5.928;2023-08-31T09:38:41;5.43;;;4.50;;
66946;SDS011;53853;51.982;5.928;2023-08-31T09:41:11;8.52;;;4.95;;
66946;SDS011;53853;51.982;5.928;2023-08-31T09:43:44;6.70;;;4.30;;
66946;SDS011;53853;51.982;5.928;2023-08-31T09:46:14;7.70;;;4.20;;
66946;SDS011;53853;51.982;5.928;2023-08-31T09:48:45;5.82;;;3.33;;
66946;SDS011;53853;51.982;5.928;2023-08-31T09:51:16;4.32;;;3.08;;
66946;SDS011;53853;51.982;5.928;2023-08-31T09:56:23;3.90;;;2.53;;
66946;SDS011;53853;51.982;5.928;2023-08-31T09:59:01;5.97;;;4.05;;
66946;SDS011;53853;51.982;5.928;2023-08-31T10:01:31;5.07;;;3.42;;
66946;SDS011;53853;51.982;5.928;2023-08-31T10:04:01;5.55;;;2.70;;
66946;SDS011;53853;51.982;5.928;2023-08-31T10:06:34;4.10;;;2.50;;
66946;SDS011;53853;51.982;5.928;2023-08-31T10:09:07;5.80;;;3.47;;
66946;SDS011;53853;51.982;5.928;2023-08-31T10:11:38;5.53;;;2.60;;
66946;SDS011;53853;51.982;5.928;2023-08-31T10:14:12;5.82;;;3.92;;
66946;SDS011;53853;51.982;5.928;2023-08-31T10:16:44;7.82;;;3.42;;
66946;SDS011;53853;51.982;5.928;2023-08-31T10:19:14;4.28;;;2.00;;
66946;SDS011;53853;51.982;5.928;2023-08-31T10:21:44;3.53;;;2.00;;
66946;SDS011;53853;51.982;5.928;2023-08-31T10:24:14;7.63;;;3.10;;
66946;SDS011;53853;51.982;5.928;2023-08-31T10:26:44;4.70;;;3.22;;
66946;SDS011;53853;51.982;5.928;2023-08-31T10:29:27;3.75;;;2.20;;
66946;SDS011;53853;51.982;5.928;2023-08-31T10:32:00;4.68;;;2.90;;
66946;SDS011;53853;51.982;5.928;2023-08-31T10:34:34;5.70;;;3.53;;
66946;SDS011;53853;51.982;5.928;2023-08-31T10:37:19;5.72;;;2.35;;
66946;SDS011;53853;51.982;5.928;2023-08-31T10:39:50;4.57;;;2.13;;
66946;SDS011;53853;51.982;5.928;2023-08-31T10:42:43;4.78;;;2.60;;
66946;SDS011;53853;51.982;5.928;2023-08-31T10:45:17;3.38;;;1.70;;
66946;SDS011;53853;51.982;5.928;2023-08-31T10:47:49;3.67;;;2.15;;
66946;SDS011;53853;51.982;5.928;2023-08-31T10:50:19;5.00;;;2.03;;
66946;SDS011;53853;51.982;5.928;2023-08-31T10:52:50;4.65;;;2.50;;
66946;SDS011;53853;51.982;5.928;2023-08-31T10:55:22;4.57;;;2.10;;
66946;SDS011;53853;51.982;5.928;2023-08-31T10:57:53;3.30;;;1.42;;
66946;SDS011;53853;51.982;5.928;2023-08-31T11:03:14;2.60;;;1.40;;
66946;SDS011;53853;51.982;5.928;2023-08-31T11:05:50;1.90;;;1.00;;
66946;SDS011;53853;51.982;5.928;2023-08-31T11:08:21;4.88;;;1.80;;
66946;SDS011;53853;51.982;5.928;2023-08-31T11:10:52;3.33;;;1.58;;
66946;SDS011;53853;51.982;5.928;2023-08-31T11:13:23;3.28;;;1.48;;
66946;SDS011;53853;51.982;5.928;2023-08-31T11:15:53;4.03;;;1.67;;
66946;SDS011;53853;51.982;5.928;2023-08-31T11:18:26;3.97;;;2.25;;
66946;SDS011;53853;51.982;5.928;2023-08-31T11:20:56;5.45;;;2.50;;
66946;SDS011;53853;51.982;5.928;2023-08-31T11:23:26;6.05;;;2.60;;
66946;SDS011;53853;51.982;5.928;2023-08-31T11:25:56;4.05;;;2.00;;
66946;SDS011;53853;51.982;5.928;2023-08-31T11:28:31;4.28;;;1.80;;
66946;SDS011;53853;51.982;5.928;2023-08-31T11:31:02;3.85;;;1.77;;
66946;SDS011;53853;51.982;5.928;2023-08-31T11:33:35;3.88;;;2.00;;
66946;SDS011;53853;51.982;5.928;2023-08-31T11:36:05;5.00;;;2.70;;
66946;SDS011;53853;51.982;5.928;2023-08-31T11:38:37;4.13;;;1.88;;
66946;SDS011;53853;51.982;5.928;2023-08-31T11:41:07;2.70;;;1.40;;
66946;SDS011;53853;51.982;5.928;2023-08-31T11:43:37;5.75;;;1.67;;
66946;SDS011;53853;51.982;5.928;2023-08-31T11:46:07;3.33;;;1.20;;
66946;SDS011;53853;51.982;5.928;2023-08-31T11:48:41;4.05;;;1.40;;
66946;SDS011;53853;51.982;5.928;2023-08-31T11:51:11;3.27;;;1.20;;
66946;SDS011;53853;51.982;5.928;2023-08-31T11:53:42;4.43;;;1.67;;
66946;SDS011;53853;51.982;5.928;2023-08-31T11:56:12;2.17;;;1.10;;
66946;SDS011;53853;51.982;5.928;2023-08-31T11:58:42;3.38;;;1.40;;
66946;SDS011;53853;51.982;5.928;2023-08-31T12:01:17;3.65;;;1.27;;
66946;SDS011;53853;51.982;5.928;2023-08-31T12:03:53;2.92;;;1.20;;
66946;SDS011;53853;51.982;5.928;2023-08-31T12:06:24;3.78;;;1.00;;
66946;SDS011;53853;51.982;5.928;2023-08-31T12:08:54;4.20;;;1.60;;
66946;SDS011;53853;51.982;5.928;2023-08-31T12:11:23;2.22;;;1.33;;
66946;SDS011;53853;51.982;5.928;2023-08-31T12:13:53;2.63;;;1.00;;
66946;SDS011;53853;51.982;5.928;2023-08-31T12:16:23;3.92;;;1.23;;
66946;SDS011;53853;51.982;5.928;2023-08-31T12:19:04;4.57;;;1.48;;
66946;SDS011;53853;51.982;5.928;2023-08-31T12:21:34;2.83;;;1.02;;
66946;SDS011;53853;51.982;5.928;2023-08-31T12:24:05;3.97;;;1.55;;
66946;SDS011;53853;51.982;5.928;2023-08-31T12:26:35;2.30;;;1.00;;
66946;SDS011;53853;51.982;5.928;2023-08-31T12:29:05;3.40;;;1.10;;
66946;SDS011;53853;51.982;5.928;2023-08-31T12:31:35;2.60;;;1.13;;
66946;SDS011;53853;51.982;5.928;2023-08-31T12:34:08;1.88;;;1.00;;
66946;SDS011;53853;51.982;5.928;2023-08-31T12:36:38;3.55;;;1.27;;
66946;SDS011;53853;51.982;5.928;2023-08-31T12:39:09;2.47;;;1.05;;
66946;SDS011;53853;51.982;5.928;2023-08-31T12:41:39;2.47;;;1.23;;
66946;SDS011;53853;51.982;5.928;2023-08-31T12:44:09;2.83;;;1.30;;
66946;SDS011;53853;51.982;5.928;2023-08-31T12:46:39;3.63;;;1.27;;
66946;SDS011;53853;51.982;5.928;2023-08-31T12:49:11;3.35;;;1.20;;
66946;SDS011;53853;51.982;5.928;2023-08-31T12:51:42;4.13;;;1.20;;
66946;SDS011;53853;51.982;5.928;2023-08-31T12:54:12;2.67;;;1.10;;
66946;SDS011;53853;51.982;5.928;2023-08-31T12:56:42;2.28;;;1.23;;
66946;SDS011;53853;51.982;5.928;2023-08-31T12:59:12;3.38;;;1.65;;
66946;SDS011;53853;51.982;5.928;2023-08-31T13:01:42;3.17;;;1.55;;
66946;SDS011;53853;51.982;5.928;2023-08-31T13:04:14;3.38;;;1.42;;
66946;SDS011;53853;51.982;5.928;2023-08-31T13:06:44;2.08;;;0.90;;
66946;SDS011;53853;51.982;5.928;2023-08-31T13:09:14;2.45;;;1.25;;
66946;SDS011;53853;51.982;5.928;2023-08-31T13:11:44;2.60;;;1.10;;
66946;SDS011;53853;51.982;5.928;2023-08-31T13:14:15;2.75;;;1.20;;
66946;SDS011;53853;51.982;5.928;2023-08-31T13:16:45;2.08;;;1.08;;
66946;SDS011;53853;51.982;5.928;2023-08-31T13:19:17;2.50;;;1.02;;
66946;SDS011;53853;51.982;5.928;2023-08-31T13:21:48;1.70;;;0.90;;
66946;SDS011;53853;51.982;5.928;2023-08-31T13:24:18;3.13;;;1.25;;
66946;SDS011;53853;51.982;5.928;2023-08-31T13:26:48;2.38;;;1.20;;
66946;SDS011;53853;51.982;5.928;2023-08-31T13:29:18;4.38;;;1.50;;
66946;SDS011;53853;51.982;5.928;2023-08-31T13:31:48;3.38;;;1.52;;
66946;SDS011;53853;51.982;5.928;2023-08-31T13:34:20;2.58;;;1.10;;
66946;SDS011;53853;51.982;5.928;2023-08-31T13:36:50;1.60;;;0.90;;
66946;SDS011;53853;51.982;5.928;2023-08-31T13:39:20;3.20;;;1.58;;
66946;SDS011;53853;51.982;5.928;2023-08-31T13:41:50;2.83;;;1.40;;
66946;SDS011;53853;51.982;5.928;2023-08-31T13:44:20;2.88;;;1.05;;
66946;SDS011;53853;51.982;5.928;2023-08-31T13:46:50;2.63;;;0.90;;
66946;SDS011;53853;51.982;5.928;2023-08-31T13:49:23;3.13;;;1.05;;
66946;SDS011;53853;51.982;5.928;2023-08-31T13:51:53;2.58;;;1.10;;
66946;SDS011;53853;51.982;5.928;2023-08-31T13:54:23;3.95;;;1.30;;
66946;SDS011;53853;51.982;5.928;2023-08-31T13:56:54;3.38;;;1.20;;
66946;SDS011;53853;51.982;5.928;2023-08-31T13:59:23;4.15;;;1.15;;
66946;SDS011;53853;51.982;5.928;2023-08-31T14:01:54;5.15;;;1.20;;
66946;SDS011;53853;51.982;5.928;2023-08-31T14:04:26;3.42;;;0.90;;
66946;SDS011;53853;51.982;5.928;2023-08-31T14:06:57;3.05;;;0.95;;
66946;SDS011;53853;51.982;5.928;2023-08-31T14:09:27;2.50;;;0.98;;
66946;SDS011;53853;51.982;5.928;2023-08-31T14:11:57;2.25;;;1.13;;
66946;SDS011;53853;51.982;5.928;2023-08-31T14:14:27;2.80;;;0.93;;
66946;SDS011;53853;51.982;5.928;2023-08-31T14:16:57;2.58;;;1.10;;
66946;SDS011;53853;51.982;5.928;2023-08-31T14:19:30;2.47;;;1.13;;
66946;SDS011;53853;51.982;5.928;2023-08-31T14:22:02;2.53;;;1.10;;
66946;SDS011;53853;51.982;5.928;2023-08-31T14:24:32;3.15;;;1.27;;
66946;SDS011;53853;51.982;5.928;2023-08-31T14:27:02;3.50;;;1.20;;
66946;SDS011;53853;51.982;5.928;2023-08-31T14:29:33;3.95;;;1.40;;
66946;SDS011;53853;51.982;5.928;2023-08-31T14:32:03;8.15;;;1.58;;
66946;SDS011;53853;51.982;5.928;2023-08-31T14:34:36;3.60;;;1.33;;
66946;SDS011;53853;51.982;5.928;2023-08-31T14:37:06;4.88;;;1.80;;
66946;SDS011;53853;51.982;5.928;2023-08-31T14:39:36;6.10;;;2.15;;
66946;SDS011;53853;51.982;5.928;2023-08-31T14:42:06;2.85;;;1.30;;
66946;SDS011;53853;51.982;5.928;2023-08-31T14:44:36;2.88;;;1.35;;
66946;SDS011;53853;51.982;5.928;2023-08-31T14:47:06;5.13;;;1.40;;
66946;SDS011;53853;51.982;5.928;2023-08-31T14:49:40;3.60;;;1.60;;
66946;SDS011;53853;51.982;5.928;2023-08-31T14:52:10;3.03;;;1.08;;
66946;SDS011;53853;51.982;5.928;2023-08-31T14:54:40;2.97;;;1.20;;
66946;SDS011;53853;51.982;5.928;2023-08-31T14:57:11;2.42;;;1.45;;
66946;SDS011;53853;51.982;5.928;2023-08-31T14:59:41;4.43;;;1.40;;
66946;SDS011;53853;51.982;5.928;2023-08-31T15:02:10;2.20;;;1.10;;
66946;SDS011;53853;51.982;5.928;2023-08-31T15:04:44;3.80;;;1.33;;
66946;SDS011;53853;51.982;5.928;2023-08-31T15:07:15;2.00;;;0.88;;
66946;SDS011;53853;51.982;5.928;2023-08-31T15:09:45;5.18;;;1.60;;
66946;SDS011;53853;51.982;5.928;2023-08-31T15:12:16;4.15;;;1.20;;
66946;SDS011;53853;51.982;5.928;2023-08-31T15:14:45;2.63;;;1.50;;
66946;SDS011;53853;51.982;5.928;2023-08-31T15:17:15;2.97;;;1.58;;